Time;durP1;ratioP1;P1;durP2;ratioP2;P2;SDS_P1;SDS_P2;PMS_P1;PMS_P2;Temp;Humidity;BMP_temperature;BMP_pressure;BME280_temperature;BME280_humidity;BME280_pressure;Samples;Min_cycle;Max_cycle;Signal;HPM_P1;HPM_P2
2023/08/29 00:01:10;;;;;;;0.20;0.20;;;;;;;16.79;100.00;99526.56;5043110;28;20033;-63
2023/08/29 00:03:35;;;;;;;0.20;0.20;;;;;;;16.78;100.00;99526.66;5030846;28;20025;-63
2023/08/29 00:06:05;;;;;;;0.30;0.30;;;;;;;16.75;100.00;99524.19;5041968;28;20124;-63
2023/08/29 00:08:32;;;;;;;0.30;0.30;;;;;;;16.74;100.00;99526.00;5047672;28;20626;-66
2023/08/29 00:10:59;;;;;;;0.20;0.20;;;;;;;16.77;100.00;99522.28;5035323;28;20033;-64
2023/08/29 00:13:24;;;;;;;0.20;0.20;;;;;;;16.73;100.00;99512.69;5050451;28;20037;-64
2023/08/29 00:15:50;;;;;;;0.30;0.30;;;;;;;16.74;100.00;99517.06;5047244;28;20500;-64
2023/08/29 00:18:16;;;;;;;0.30;0.30;;;;;;;16.76;100.00;99512.47;5033834;28;20132;-63
2023/08/29 00:20:41;;;;;;;0.25;0.25;;;;;;;16.76;100.00;99513.34;5039796;28;20114;-62
2023/08/29 00:23:09;;;;;;;0.30;0.30;;;;;;;16.78;100.00;99518.59;5050167;28;20478;-62
2023/08/29 00:25:35;;;;;;;0.30;0.30;;;;;;;16.82;100.00;99522.81;5048041;28;20103;-63
2023/08/29 00:28:00;;;;;;;0.30;0.30;;;;;;;16.77;100.00;99538.38;5050101;28;20035;-62
2023/08/29 00:30:26;;;;;;;0.30;0.30;;;;;;;16.78;100.00;99537.41;5048521;28;20029;-64
2023/08/29 00:32:51;;;;;;;0.28;0.28;;;;;;;16.77;100.00;99530.34;5049957;28;20035;-63
2023/08/29 00:35:17;;;;;;;0.30;0.30;;;;;;;16.70;100.00;99529.00;5044918;28;20021;-60
2023/08/29 00:37:43;;;;;;;0.30;0.30;;;;;;;16.71;100.00;99528.03;5039271;28;20036;-64
2023/08/29 00:40:10;;;;;;;0.20;0.20;;;;;;;16.77;100.00;99527.66;5045334;28;20040;-64
2023/08/29 00:42:35;;;;;;;0.30;0.30;;;;;;;16.80;100.00;99527.44;5047015;28;20036;-65
2023/08/29 00:45:01;;;;;;;0.30;0.30;;;;;;;16.80;100.00;99530.13;5048568;28;20025;-63
2023/08/29 00:47:27;;;;;;;0.20;0.20;;;;;;;16.81;100.00;99537.22;5037502;28;20124;-65
2023/08/29 00:49:53;;;;;;;0.22;0.22;;;;;;;16.79;100.00;99540.00;5045062;28;20529;-63
2023/08/29 00:52:19;;;;;;;0.28;0.28;;;;;;;16.78;100.00;99538.28;5048489;28;20116;-62
2023/08/29 00:54:44;;;;;;;0.30;0.30;;;;;;;16.75;100.00;99537.63;5045953;28;20107;-63
2023/08/29 00:57:10;;;;;;;0.25;0.25;;;;;;;16.76;100.00;99540.19;5054497;28;20037;-63
2023/08/29 00:59:36;;;;;;;0.20;0.20;;;;;;;16.76;100.00;99544.69;5032934;28;20050;-66
2023/08/29 01:02:01;;;;;;;0.30;0.30;;;;;;;16.75;100.00;99535.78;5037338;28;20041;-65
2023/08/29 01:04:26;;;;;;;0.30;0.30;;;;;;;16.71;100.00;99531.59;5029636;28;20029;-66
2023/08/29 01:06:54;;;;;;;0.30;0.30;;;;;;;16.75;100.00;99534.94;5047965;28;20508;-65
2023/08/29 01:09:20;;;;;;;0.20;0.20;;;;;;;16.75;100.00;99541.16;5047296;28;20060;-65
2023/08/29 01:11:58;;;;;;;0.20;0.20;;;;;;;16.74;100.00;99538.56;5048066;28;20056;-65
2023/08/29 01:15:03;;;;;;;0.20;0.20;;;;;;;16.71;100.00;99538.75;5029261;28;20047;-65
2023/08/29 01:17:34;;;;;;;0.20;0.20;;;;;;;16.70;100.00;99547.81;5040551;28;20365;-67
2023/08/29 01:20:01;;;;;;;0.30;0.30;;;;;;;16.65;100.00;99544.53;5048489;28;20374;-66
2023/08/29 01:22:30;;;;;;;0.20;0.20;;;;;;;16.64;100.00;99541.00;5046894;28;20592;-65
2023/08/29 01:25:17;;;;;;;0.20;0.20;;;;;;;16.61;100.00;99540.31;5049042;28;20032;-66
2023/08/29 01:27:44;;;;;;;0.30;0.30;;;;;;;16.63;100.00;99552.72;5047908;28;20128;-66
2023/08/29 01:30:10;;;;;;;0.30;0.30;;;;;;;16.63;100.00;99541.09;5047237;28;20051;-66
2023/08/29 01:32:37;;;;;;;0.30;0.30;;;;;;;16.59;100.00;99535.06;5037735;28;20589;-66
2023/08/29 01:35:02;;;;;;;0.30;0.30;;;;;;;16.66;100.00;99540.88;5034227;28;20124;-67
2023/08/29 01:37:28;;;;;;;0.30;0.30;;;;;;;16.60;100.00;99535.91;5047323;28;20129;-67
2023/08/29 01:39:53;;;;;;;0.30;0.30;;;;;;;16.59;100.00;99536.91;5038801;28;20025;-67
2023/08/29 01:42:19;;;;;;;0.20;0.20;;;;;;;16.63;100.00;99551.84;5045128;28;20021;-66
2023/08/29 01:44:44;;;;;;;0.20;0.20;;;;;;;16.63;100.00;99546.47;5048019;28;20025;-67
2023/08/29 01:47:09;;;;;;;0.20;0.20;;;;;;;16.56;100.00;99537.94;5047767;28;20390;-67
2023/08/29 01:49:36;;;;;;;0.28;0.28;;;;;;;16.59;100.00;99547.63;5046922;28;20123;-66
2023/08/29 01:52:01;;;;;;;0.30;0.30;;;;;;;16.59;100.00;99553.00;5033021;28;20029;-62
2023/08/29 01:54:27;;;;;;;0.30;0.30;;;;;;;16.55;100.00;99548.78;5051207;28;20486;-67
2023/08/29 01:56:56;;;;;;;0.30;0.30;;;;;;;16.48;100.00;99536.69;5044582;28;20029;-66
2023/08/29 01:59:22;;;;;;;0.20;0.20;;;;;;;16.50;100.00;99537.47;5028708;28;20044;-66
2023/08/29 02:01:48;;;;;;;0.30;0.30;;;;;;;16.47;100.00;99540.34;5047220;28;20029;-65
2023/08/29 02:04:14;;;;;;;0.25;0.25;;;;;;;16.43;100.00;99544.16;5045990;28;20097;-65
2023/08/29 02:06:39;;;;;;;0.30;0.30;;;;;;;16.40;100.00;99539.00;5029948;28;20072;-67
2023/08/29 02:09:05;;;;;;;0.30;0.30;;;;;;;16.39;100.00;99532.75;5027452;28;20034;-66
2023/08/29 02:11:30;;;;;;;0.30;0.30;;;;;;;16.34;100.00;99521.44;5027313;28;20041;-65
2023/08/29 02:13:56;;;;;;;0.30;0.30;;;;;;;16.39;100.00;99529.22;5029110;28;20188;-66
2023/08/29 02:16:21;;;;;;;0.30;0.30;;;;;;;16.37;100.00;99532.00;5030588;28;20029;-66
2023/08/29 02:18:46;;;;;;;0.30;0.30;;;;;;;16.37;100.00;99523.09;5028425;28;20041;-65
2023/08/29 02:21:12;;;;;;;0.30;0.30;;;;;;;16.39;100.00;99531.91;5040678;28;20056;-65
2023/08/29 02:23:37;;;;;;;0.30;0.30;;;;;;;16.38;100.00;99530.16;5047813;28;20028;-65
2023/08/29 02:26:04;;;;;;;0.30;0.30;;;;;;;16.37;100.00;99523.09;5046476;28;20135;-65
2023/08/29 02:28:34;;;;;;;0.30;0.30;;;;;;;16.41;100.00;99529.97;5045806;28;20029;-66
2023/08/29 02:31:04;;;;;;;0.30;0.30;;;;;;;16.42;100.00;99532.56;5034245;28;20037;-65
2023/08/29 02:33:30;;;;;;;0.20;0.20;;;;;;;16.40;100.00;99525.56;5038455;28;20557;-65
2023/08/29 02:35:56;;;;;;;0.30;0.30;;;;;;;16.34;100.00;99513.38;5034490;28;20032;-65
2023/08/29 02:38:21;;;;;;;0.30;0.30;;;;;;;16.34;100.00;99517.91;5047147;28;20103;-65
2023/08/29 02:40:47;;;;;;;0.30;0.30;;;;;;;16.35;100.00;99512.44;5047114;28;20130;-65
2023/08/29 02:43:12;;;;;;;0.22;0.22;;;;;;;16.38;100.00;99516.75;5047368;28;20029;-65
2023/08/29 02:45:37;;;;;;;0.20;0.20;;;;;;;16.34;100.00;99510.69;5045060;28;20568;-66
2023/08/29 02:48:04;;;;;;;0.30;0.30;;;;;;;16.31;100.00;99507.38;5046667;28;20082;-63
2023/08/29 02:50:30;;;;;;;0.30;0.30;;;;;;;16.31;100.00;99512.75;5049539;28;20032;-63
2023/08/29 02:52:56;;;;;;;0.30;0.30;;;;;;;16.32;100.00;99515.31;5050773;28;20028;-63
2023/08/29 02:55:21;;;;;;;0.30;0.30;;;;;;;16.34;100.00;99515.22;5048264;28;20036;-62
2023/08/29 02:57:47;;;;;;;0.30;0.30;;;;;;;16.34;100.00;99513.38;5045596;28;20055;-62
2023/08/29 03:00:14;;;;;;;0.30;0.30;;;;;;;16.35;100.00;99508.88;5038157;28;20029;-63
2023/08/29 03:02:40;;;;;;;0.30;0.30;;;;;;;16.37;100.00;99512.34;5040967;28;20074;-64
2023/08/29 03:05:05;;;;;;;0.20;0.20;;;;;;;16.29;100.00;99514.66;5050221;28;20477;-63
2023/08/29 03:07:31;;;;;;;0.20;0.20;;;;;;;16.26;100.00;99515.69;5049705;28;20049;-62
2023/08/29 03:09:56;;;;;;;0.20;0.20;;;;;;;16.27;100.00;99511.19;5038506;28;20064;-63
2023/08/29 03:12:22;;;;;;;0.32;0.32;;;;;;;16.26;100.00;99510.34;5030707;28;20183;-63
2023/08/29 03:14:53;;;;;;;0.30;0.30;;;;;;;16.24;100.00;99506.91;5048816;28;20105;-63
2023/08/29 03:17:18;;;;;;;0.30;0.30;;;;;;;16.27;100.00;99505.84;5048569;28;20032;-64
2023/08/29 03:19:44;;;;;;;0.30;0.30;;;;;;;16.31;100.00;99507.38;5049677;28;20029;-63
2023/08/29 03:22:09;;;;;;;0.30;0.30;;;;;;;16.36;100.00;99507.94;5035355;28;20053;-63
2023/08/29 03:24:34;;;;;;;0.40;0.40;;;;;;;16.37;100.00;99501.59;5033698;28;20027;-64
2023/08/29 03:27:00;;;;;;;0.30;0.30;;;;;;;16.38;100.00;99506.00;5050106;28;20667;-64
2023/08/29 03:29:26;;;;;;;0.30;0.30;;;;;;;16.43;100.00;99501.19;5049423;28;20040;-63
2023/08/29 03:31:51;;;;;;;0.30;0.30;;;;;;;16.42;100.00;99504.84;5048359;28;20203;-64
2023/08/29 03:34:16;;;;;;;0.30;0.30;;;;;;;16.39;100.00;99500.53;5049313;28;20021;-63
2023/08/29 03:36:42;;;;;;;0.30;0.30;;;;;;;16.36;100.00;99503.41;5039689;28;20055;-63
2023/08/29 03:39:07;;;;;;;0.30;0.30;;;;;;;16.35;100.00;99500.84;5035890;28;20037;-64
2023/08/29 03:41:32;;;;;;;0.30;0.30;;;;;;;16.37;100.00;99502.47;5042884;28;20465;-63
2023/08/29 03:43:58;;;;;;;0.30;0.30;;;;;;;16.47;100.00;99497.41;5030592;28;20044;-63
2023/08/29 03:46:23;;;;;;;0.30;0.30;;;;;;;16.44;100.00;99492.22;5040661;28;20032;-63
2023/08/29 03:48:49;;;;;;;0.28;0.28;;;;;;;16.39;100.00;99499.69;5048856;28;20112;-62
2023/08/29 03:51:14;;;;;;;0.30;0.30;;;;;;;16.35;100.00;99488.28;5049922;28;20029;-63
2023/08/29 03:53:39;;;;;;;0.30;0.30;;;;;;;16.30;100.00;99494.91;5031391;28;20026;-63
2023/08/29 03:56:07;;;;;;;0.30;0.30;;;;;;;16.33;100.00;99492.88;5063601;28;20040;-63
2023/08/29 03:58:33;;;;;;;0.30;0.30;;;;;;;16.37;100.00;99496.25;5057517;28;20025;-63
2023/08/29 04:00:59;;;;;;;0.30;0.30;;;;;;;16.35;100.00;99492.78;5031350;28;20523;-63
2023/08/29 04:03:24;;;;;;;0.20;0.20;;;;;;;16.39;100.00;99494.31;5030796;28;20033;-63
2023/08/29 04:05:50;;;;;;;0.30;0.30;;;;;;;16.34;100.00;99496.44;5030629;28;20029;-63
2023/08/29 04:08:15;;;;;;;0.30;0.30;;;;;;;16.33;100.00;99489.31;5044560;28;20413;-63
2023/08/29 04:10:41;;;;;;;0.30;0.30;;;;;;;16.36;100.00;99489.16;5050223;28;20029;-64
2023/08/29 04:13:07;;;;;;;0.30;0.30;;;;;;;16.38;100.00;99487.22;5045789;28;20037;-63
2023/08/29 04:15:33;;;;;;;0.25;0.25;;;;;;;16.33;100.00;99483.97;5050091;28;20094;-63
2023/08/29 04:18:00;;;;;;;0.30;0.30;;;;;;;16.31;100.00;99493.97;5048637;28;20599;-62
2023/08/29 04:20:25;;;;;;;0.30;0.30;;;;;;;16.33;100.00;99492.88;5043291;28;20048;-63
2023/08/29 04:22:51;;;;;;;0.30;0.30;;;;;;;16.30;100.00;99494.91;5049324;28;20087;-62
2023/08/29 04:25:17;;;;;;;0.30;0.30;;;;;;;16.31;100.00;99493.97;5048659;28;20548;-63
2023/08/29 04:27:43;;;;;;;0.30;0.30;;;;;;;16.30;100.00;99495.78;5048077;28;20087;-63
2023/08/29 04:30:09;;;;;;;0.30;0.30;;;;;;;16.26;100.00;99494.22;5047344;28;20094;-63
2023/08/29 04:32:36;;;;;;;0.30;0.30;;;;;;;16.26;100.00;99493.38;5047371;28;20041;-62
2023/08/29 04:35:04;;;;;;;0.30;0.30;;;;;;;16.21;100.00;99499.03;5044398;28;20567;-63
2023/08/29 04:37:29;;;;;;;0.20;0.20;;;;;;;16.22;100.00;99491.84;5049369;28;20028;-63
2023/08/29 04:39:55;;;;;;;0.30;0.30;;;;;;;16.23;100.00;99488.19;5048441;28;20025;-62
2023/08/29 04:42:20;;;;;;;0.30;0.30;;;;;;;16.25;100.00;99492.53;5048310;28;20025;-63
2023/08/29 04:44:46;;;;;;;0.30;0.30;;;;;;;16.23;100.00;99494.44;5049920;28;20031;-63
2023/08/29 04:47:11;;;;;;;0.30;0.30;;;;;;;16.27;100.00;99489.72;5048530;28;20037;-63
2023/08/29 04:49:37;;;;;;;0.25;0.25;;;;;;;16.26;100.00;99498.75;5047491;28;20112;-63
2023/08/29 04:52:02;;;;;;;0.30;0.30;;;;;;;16.20;100.00;99504.50;5038828;28;20037;-63
2023/08/29 04:54:28;;;;;;;0.30;0.30;;;;;;;16.24;100.00;99493.50;5046350;28;20766;-63
2023/08/29 04:56:53;;;;;;;0.30;0.30;;;;;;;16.28;100.00;99503.06;5030231;28;20033;-63
2023/08/29 04:59:18;;;;;;;0.30;0.30;;;;;;;16.26;100.00;99504.13;5027184;28;20017;-63
2023/08/29 05:01:44;;;;;;;0.30;0.30;;;;;;;16.26;100.00;99504.13;5036363;28;20029;-63
2023/08/29 05:04:10;;;;;;;0.30;0.30;;;;;;;16.27;100.00;99497.78;5033431;28;20033;-63
2023/08/29 05:06:36;;;;;;;0.30;0.30;;;;;;;16.27;100.00;99504.03;5036312;28;20064;-63
2023/08/29 05:09:01;;;;;;;0.38;0.38;;;;;;;16.30;100.00;99503.81;5042573;28;20021;-63
2023/08/29 05:11:27;;;;;;;0.30;0.30;;;;;;;16.30;100.00;99498.44;5042166;28;20029;-63
2023/08/29 05:13:52;;;;;;;0.30;0.30;;;;;;;16.32;100.00;99503.72;5041623;28;20154;-63
2023/08/29 05:16:17;;;;;;;0.30;0.30;;;;;;;16.35;100.00;99500.84;5043761;28;20029;-63
2023/08/29 05:18:43;;;;;;;0.20;0.20;;;;;;;16.37;100.00;99506.97;5038494;28;20031;-63
2023/08/29 05:21:08;;;;;;;0.30;0.30;;;;;;;16.37;100.00;99504.28;5043545;28;20025;-63
2023/08/29 05:23:34;;;;;;;0.30;0.30;;;;;;;16.34;100.00;99504.50;5036632;28;20017;-62
2023/08/29 05:25:59;;;;;;;0.30;0.30;;;;;;;16.35;100.00;99509.75;5039326;28;20056;-63
2023/08/29 05:28:25;;;;;;;0.30;0.30;;;;;;;16.42;100.00;99504.84;5040534;28;20028;-63
2023/08/29 05:30:51;;;;;;;0.30;0.30;;;;;;;16.43;100.00;99503.88;5036682;28;20029;-63
2023/08/29 05:33:16;;;;;;;0.30;0.30;;;;;;;16.44;100.00;99508.31;5041781;28;20476;-63
2023/08/29 05:35:42;;;;;;;0.40;0.40;;;;;;;16.46;100.00;99509.09;5036650;28;20105;-63
2023/08/29 05:38:09;;;;;;;0.30;0.30;;;;;;;16.43;100.00;99511.94;5043916;28;20484;-63
2023/08/29 05:40:34;;;;;;;0.30;0.30;;;;;;;16.46;100.00;99509.09;5045449;28;20094;-63
2023/08/29 05:42:59;;;;;;;0.30;0.30;;;;;;;16.47;100.00;99509.00;5038591;28;20469;-63
2023/08/29 05:45:26;;;;;;;0.30;0.30;;;;;;;16.50;100.00;99508.81;5041927;28;20033;-63
2023/08/29 05:47:51;;;;;;;0.30;0.30;;;;;;;16.53;100.00;99515.78;5039683;28;20100;-63
2023/08/29 05:50:17;;;;;;;0.30;0.30;;;;;;;16.52;100.00;99504.19;5044643;28;20753;-63
2023/08/29 05:52:42;;;;;;;0.30;0.30;;;;;;;16.60;100.00;99514.44;5033191;28;20437;-63
2023/08/29 05:55:10;;;;;;;0.32;0.32;;;;;;;16.60;100.00;99518.00;5040955;28;20113;-63
2023/08/29 05:57:35;;;;;;;0.30;0.30;;;;;;;16.67;100.00;99513.09;5031231;28;20029;-63
2023/08/29 06:00:00;;;;;;;0.30;0.30;;;;;;;16.71;100.00;99512.78;5040643;28;20493;-63
2023/08/29 06:02:26;;;;;;;0.20;0.20;;;;;;;16.73;100.00;99512.69;5035786;28;20032;-63
2023/08/29 06:04:51;;;;;;;0.30;0.30;;;;;;;16.71;100.00;99515.47;5041144;28;20422;-62
2023/08/29 06:07:17;;;;;;;0.30;0.30;;;;;;;16.73;100.00;99518.06;5029923;28;20042;-63
2023/08/29 06:09:42;;;;;;;0.25;0.25;;;;;;;16.77;100.00;99524.97;5033720;28;20029;-62
2023/08/29 06:12:09;;;;;;;0.30;0.30;;;;;;;16.69;100.00;99529.94;5042420;28;20029;-63
2023/08/29 06:14:35;;;;;;;0.30;0.30;;;;;;;16.75;100.00;99526.88;5039196;28;20170;-63
2023/08/29 06:17:00;;;;;;;0.30;0.30;;;;;;;16.81;100.00;99529.16;5042633;28;20029;-64
2023/08/29 06:19:25;;;;;;;0.30;0.30;;;;;;;16.77;100.00;99533.00;5041225;28;20037;-64
2023/08/29 06:21:51;;;;;;;0.30;0.30;;;;;;;16.77;100.00;99522.28;5045389;28;20017;-63
2023/08/29 06:24:16;;;;;;;0.30;0.30;;;;;;;16.87;100.00;99529.59;5050393;28;20110;-62
2023/08/29 06:26:42;;;;;;;0.30;0.30;;;;;;;16.95;100.00;99523.75;5051616;28;20043;-62
2023/08/29 06:29:07;;;;;;;0.28;0.28;;;;;;;16.97;100.00;99533.41;5048769;28;20110;-63
2023/08/29 06:31:33;;;;;;;0.22;0.22;;;;;;;16.98;100.00;99534.28;5046915;28;20037;-63
2023/08/29 06:33:59;;;;;;;0.30;0.30;;;;;;;16.98;100.00;99536.97;5039581;28;20020;-63
2023/08/29 06:36:26;;;;;;;0.30;0.30;;;;;;;16.97;100.00;99530.72;5051502;28;20536;-63
2023/08/29 06:38:51;;;;;;;0.25;0.25;;;;;;;16.94;100.00;99525.56;5049085;28;20017;-63
2023/08/29 06:41:17;;;;;;;0.30;0.30;;;;;;;17.01;100.00;99531.38;5047966;28;20086;-63
2023/08/29 06:43:42;;;;;;;0.25;0.25;;;;;;;17.06;100.00;99540.00;5049483;28;20033;-63
2023/08/29 06:46:08;;;;;;;0.30;0.30;;;;;;;17.06;100.00;99540.00;5038268;28;20026;-63
2023/08/29 06:48:33;;;;;;;0.30;0.30;;;;;;;17.08;100.00;99538.94;5036061;28;20086;-64
2023/08/29 06:50:59;;;;;;;0.30;0.30;;;;;;;17.12;100.00;99534.22;5031539;28;20029;-63
2023/08/29 06:53:26;;;;;;;0.28;0.28;;;;;;;17.06;100.00;99545.38;5047061;28;20024;-63
2023/08/29 06:55:52;;;;;;;0.25;0.25;;;;;;;17.20;100.00;99548.00;5045169;28;20033;-62
2023/08/29 06:58:17;;;;;;;0.30;0.30;;;;;;;17.25;100.00;99543.19;5037150;28;20079;-62
2023/08/29 07:00:42;;;;;;;0.30;0.30;;;;;;;17.24;100.00;99546.84;5043725;28;20029;-63
2023/08/29 07:03:08;;;;;;;0.25;0.25;;;;;;;17.35;100.00;99536.22;5047802;28;20469;-62
2023/08/29 07:05:33;;;;;;;0.30;0.30;;;;;;;17.46;100.00;99541.75;5049851;28;20029;-63
2023/08/29 07:07:59;;;;;;;0.20;0.20;;;;;;;17.53;100.00;99548.44;5048530;28;20069;-62
2023/08/29 07:10:25;;;;;;;0.30;0.30;;;;;;;17.61;100.00;99540.72;5050509;28;20037;-63
2023/08/29 07:12:50;;;;;;;0.30;0.30;;;;;;;17.60;100.00;99552.44;5050602;28;20082;-62
2023/08/29 07:15:16;;;;;;;0.20;0.20;;;;;;;17.70;100.00;99547.28;5047326;28;20029;-63
2023/08/29 07:17:41;;;;;;;0.20;0.20;;;;;;;17.84;100.00;99550.75;5049897;28;20021;-62
2023/08/29 07:20:08;;;;;;;0.30;0.30;;;;;;;17.87;100.00;99545.19;5031202;28;20029;-64
2023/08/29 07:22:36;;;;;;;0.30;0.30;;;;;;;17.92;100.00;99558.31;5045013;28;20033;-63
2023/08/29 07:25:02;;;;;;;0.30;0.30;;;;;;;18.03;100.00;99561.97;5049720;28;20025;-63
2023/08/29 07:27:29;;;;;;;0.20;0.20;;;;;;;18.03;100.00;99561.09;5046682;28;20044;-64
2023/08/29 07:29:55;;;;;;;0.30;0.30;;;;;;;18.05;100.00;99565.41;5051205;28;20138;-63
2023/08/29 07:32:20;;;;;;;0.20;0.20;;;;;;;18.15;100.00;99569.16;5050384;28;20499;-63
2023/08/29 07:34:46;;;;;;;0.20;0.20;;;;;;;18.18;100.00;99555.50;5046471;28;20029;-63
2023/08/29 07:37:11;;;;;;;0.20;0.20;;;;;;;18.28;100.00;99561.97;5049732;28;20483;-63
2023/08/29 07:39:38;;;;;;;0.20;0.20;;;;;;;18.50;100.00;99565.84;5038465;28;20039;-63
2023/08/29 07:42:03;;;;;;;0.20;0.20;;;;;;;18.70;100.00;99567.97;5045010;28;20025;-62
2023/08/29 07:44:29;;;;;;;0.25;0.25;;;;;;;18.88;100.00;99574.72;5043385;28;20029;-63
2023/08/29 07:46:56;;;;;;;0.28;0.28;;;;;;;18.97;99.21;99577.56;5050592;28;20040;-63
2023/08/29 07:49:21;;;;;;;0.20;0.20;;;;;;;18.99;98.32;99577.47;5049143;28;20082;-63
2023/08/29 07:51:47;;;;;;;0.20;0.20;;;;;;;19.10;97.77;99581.09;5035260;28;20021;-62
2023/08/29 07:54:12;;;;;;;0.20;0.20;;;;;;;19.07;97.30;99578.63;5032164;28;20034;-64
2023/08/29 07:56:38;;;;;;;0.20;0.20;;;;;;;19.16;97.44;99582.47;5044964;28;20041;-63
2023/08/29 07:59:03;;;;;;;0.20;0.20;;;;;;;19.14;96.33;99581.72;5038312;28;20028;-63
2023/08/29 08:01:29;;;;;;;0.20;0.20;;;;;;;19.16;96.23;99579.78;5046035;28;20025;-63
2023/08/29 08:03:54;;;;;;;0.20;0.20;;;;;;;19.20;96.21;99586.66;5039002;28;20067;-62
2023/08/29 08:06:20;;;;;;;0.17;0.17;;;;;;;19.25;95.49;99581.78;5048518;28;20409;-63
2023/08/29 08:08:45;;;;;;;0.20;0.20;;;;;;;19.24;93.52;99585.47;5045883;28;20377;-62
2023/08/29 08:11:10;;;;;;;0.20;0.20;;;;;;;19.24;93.63;99590.84;5048297;28;20025;-63
2023/08/29 08:13:36;;;;;;;0.20;0.20;;;;;;;19.18;94.34;99588.59;5042237;28;20055;-63
2023/08/29 08:16:01;;;;;;;0.20;0.20;;;;;;;19.28;94.91;99584.25;5038614;28;20088;-63
2023/08/29 08:18:27;;;;;;;0.20;0.20;;;;;;;19.16;93.35;99587.88;5027525;28;20037;-63
2023/08/29 08:20:52;;;;;;;0.10;0.10;;;;;;;19.25;92.83;99592.56;5028375;28;20041;-63
2023/08/29 08:23:18;;;;;;;0.20;0.20;;;;;;;19.36;92.93;99589.94;5041117;28;20032;-62
2023/08/29 08:25:44;;;;;;;0.20;0.20;;;;;;;19.48;92.11;99599.81;5034943;28;20090;-63
2023/08/29 08:28:10;;;;;;;0.20;0.20;;;;;;;19.32;92.95;99594.72;5033526;28;20112;-63
2023/08/29 08:30:37;;;;;;;0.10;0.10;;;;;;;19.24;92.33;99596.25;5038425;28;20191;-63
2023/08/29 08:33:05;;;;;;;0.30;0.30;;;;;;;19.37;93.88;99583.59;5029742;28;20056;-63
2023/08/29 08:35:30;;;;;;;0.17;0.17;;;;;;;19.24;92.82;99593.56;5046431;28;20048;-63
2023/08/29 08:37:56;;;;;;;0.20;0.20;;;;;;;19.46;93.21;99596.38;5043865;28;20894;-63
2023/08/29 08:40:22;;;;;;;0.20;0.20;;;;;;;19.54;91.73;99591.25;5036512;28;20170;-63
2023/08/29 08:42:48;;;;;;;0.20;0.20;;;;;;;19.52;91.23;99595.94;5036786;28;20021;-63
2023/08/29 08:45:14;;;;;;;0.20;0.20;;;;;;;19.34;91.00;99602.72;5028101;28;20056;-63
2023/08/29 08:47:40;;;;;;;0.20;0.20;;;;;;;19.41;91.77;99595.84;5026241;28;20026;-64
2023/08/29 08:50:10;;;;;;;0.20;0.20;;;;;;;19.60;91.09;99598.91;5030689;28;20100;-63
2023/08/29 08:52:38;;;;;;;0.20;0.20;;;;;;;19.64;91.49;99595.84;5035993;28;20050;-64
2023/08/29 08:55:05;;;;;;;0.20;0.20;;;;;;;19.71;91.42;99593.53;5048488;28;20040;-63
2023/08/29 08:57:31;;;;;;;0.20;0.20;;;;;;;19.70;90.79;99599.94;5031992;28;20021;-63
2023/08/29 08:59:57;;;;;;;0.20;0.20;;;;;;;19.97;90.30;99608.59;5031111;28;20109;-63
2023/08/29 09:02:24;;;;;;;0.10;0.10;;;;;;;20.05;88.65;99606.16;5043144;28;20039;-64
2023/08/29 09:04:49;;;;;;;0.20;0.20;;;;;;;20.02;87.93;99595.59;5047932;28;20025;-63
2023/08/29 09:07:15;;;;;;;0.10;0.10;;;;;;;20.35;88.51;99592.97;5047946;28;20060;-63
2023/08/29 09:09:41;;;;;;;0.20;0.20;;;;;;;20.56;86.44;99595.84;5047806;28;20055;-63
2023/08/29 09:12:06;;;;;;;0.20;0.20;;;;;;;20.71;85.47;99595.44;5048172;28;20033;-64
2023/08/29 09:14:32;;;;;;;0.17;0.17;;;;;;;20.99;84.90;99593.25;5041469;28;20064;-63
2023/08/29 09:16:59;;;;;;;0.10;0.10;;;;;;;21.11;81.75;99590.41;5032737;28;20033;-64
2023/08/29 09:19:29;;;;;;;0.10;0.10;;;;;;;21.26;80.61;99596.38;5030304;28;20460;-64
2023/08/29 09:21:55;;;;;;;0.17;0.17;;;;;;;21.46;81.10;99592.88;5028155;28;20087;-64
2023/08/29 09:24:35;;;;;;;0.20;0.20;;;;;;;21.53;79.08;99588.69;5033465;28;20021;-64
2023/08/29 09:27:09;;;;;;;0.20;0.20;;;;;;;21.63;78.89;99592.34;5028853;28;20033;-64
2023/08/29 09:29:36;;;;;;;0.10;0.10;;;;;;;21.84;78.77;99594.13;5028824;28;20222;-64
2023/08/29 09:32:14;;;;;;;0.10;0.10;;;;;;;22.02;79.83;99587.13;5034278;28;20480;-63
2023/08/29 09:34:40;;;;;;;0.10;0.10;;;;;;;22.09;77.68;99588.28;5037485;28;20031;-63
2023/08/29 09:37:06;;;;;;;0.10;0.10;;;;;;;21.85;75.78;99597.66;5043131;28;20021;-63
2023/08/29 09:39:32;;;;;;;0.10;0.10;;;;;;;21.82;77.18;99601.50;5039318;28;20421;-63
2023/08/29 09:42:04;;;;;;;0.10;0.10;;;;;;;21.77;77.29;99598.31;5046891;28;20028;-63
2023/08/29 09:44:34;;;;;;;0.10;0.10;;;;;;;21.79;76.71;99590.06;5047148;28;20029;-63
2023/08/29 09:47:00;;;;;;;0.10;0.10;;;;;;;21.46;76.93;99598.28;5030050;28;20887;-63
2023/08/29 09:49:42;;;;;;;0.10;0.10;;;;;;;21.65;78.82;99593.91;5036248;28;20025;-64
2023/08/29 09:52:09;;;;;;;0.10;0.10;;;;;;;21.88;79.68;99589.25;5028498;28;20025;-63
2023/08/29 09:54:37;;;;;;;0.10;0.10;;;;;;;22.00;77.87;99582.81;5045545;28;20024;-63
2023/08/29 09:57:05;;;;;;;0.10;0.10;;;;;;;21.97;77.22;99573.09;5047598;28;20032;-64
2023/08/29 09:59:34;;;;;;;0.10;0.10;;;;;;;21.99;75.86;99581.09;5048226;28;20461;-63
2023/08/29 10:02:00;;;;;;;0.10;0.10;;;;;;;22.04;77.46;99578.84;5046815;28;20107;-64
2023/08/29 10:04:29;;;;;;;0.10;0.10;;;;;;;22.09;76.68;99573.91;5048615;28;20029;-63
2023/08/29 10:06:59;;;;;;;0.10;0.10;;;;;;;22.17;77.54;99579.50;5048281;28;20059;-64
2023/08/29 10:09:28;;;;;;;0.10;0.10;;;;;;;22.24;77.04;99575.25;5047357;28;20781;-64
2023/08/29 10:11:54;;;;;;;0.10;0.10;;;;;;;22.23;75.59;99573.53;5035527;28;20041;-64
2023/08/29 10:14:22;;;;;;;0.10;0.10;;;;;;;22.33;74.48;99574.47;5033220;28;20067;-63
2023/08/29 10:16:49;;;;;;;0.10;0.10;;;;;;;22.36;75.43;99576.91;5048402;28;20044;-63
2023/08/29 10:19:15;;;;;;;0.10;0.10;;;;;;;22.31;73.79;99579.16;5047384;28;20086;-63
2023/08/29 10:21:44;;;;;;;0.20;0.20;;;;;;;22.27;73.90;99575.00;5048245;28;20393;-63
2023/08/29 10:24:12;;;;;;;0.10;0.10;;;;;;;22.28;74.38;99574.00;5047216;28;20090;-64
2023/08/29 10:26:38;;;;;;;0.10;0.10;;;;;;;22.35;75.10;99566.19;5043797;28;20536;-63
2023/08/29 10:29:05;;;;;;;0.10;0.10;;;;;;;22.54;76.34;99572.59;5028320;28;20061;-64
2023/08/29 10:31:33;;;;;;;0.10;0.10;;;;;;;22.78;75.87;99570.44;5046005;28;20626;-64
2023/08/29 10:34:03;;;;;;;0.10;0.10;;;;;;;23.02;74.20;99567.34;5028453;28;20026;-63
2023/08/29 10:36:28;;;;;;;0.10;0.10;;;;;;;23.13;69.72;99565.38;5028193;28;20036;-63
2023/08/29 10:38:56;;;;;;;0.10;0.10;;;;;;;23.26;71.11;99571.41;5036147;28;20017;-64
2023/08/29 10:41:21;;;;;;;0.10;0.10;;;;;;;23.39;71.47;99563.88;5047045;28;20032;-64
2023/08/29 10:43:49;;;;;;;0.10;0.10;;;;;;;23.61;70.33;99576.31;5046804;28;20036;-63
2023/08/29 10:46:15;;;;;;;0.10;0.10;;;;;;;23.60;69.10;99557.44;5045037;28;20432;-63
2023/08/29 10:48:43;;;;;;;0.10;0.10;;;;;;;23.65;70.09;99560.59;5046001;28;20029;-64
2023/08/29 10:51:08;;;;;;;0.10;0.10;;;;;;;23.83;68.39;99556.16;5041442;28;20037;-63
2023/08/29 10:53:39;;;;;;;0.10;0.10;;;;;;;23.88;67.47;99562.88;5046097;28;20041;-64
2023/08/29 10:56:10;;;;;;;0.10;0.10;;;;;;;23.61;66.60;99556.47;5045461;28;20218;-63
2023/08/29 10:58:38;;;;;;;0.10;0.10;;;;;;;23.10;nan;99562.06;5041969;28;20021;-64
2023/08/29 11:01:05;;;;;;;0.10;0.10;;;;;;;22.89;69.96;99554.03;5036519;28;20033;-62
2023/08/29 11:03:48;;;;;;;0.10;0.10;;;;;;;22.94;71.01;99554.47;5029463;28;20025;-63
2023/08/29 11:06:16;;;;;;;0.10;0.10;;;;;;;23.02;70.17;99546.50;5027641;28;20037;-63
2023/08/29 11:08:42;;;;;;;0.10;0.10;;;;;;;23.15;69.79;99540.81;5035783;28;20037;-63
2023/08/29 11:11:24;;;;;;;0.10;0.10;;;;;;;23.34;68.49;99544.44;5029237;28;20622;-62
2023/08/29 11:14:06;;;;;;;0.10;0.10;;;;;;;23.21;69.16;99546.53;5035657;28;20412;-63
2023/08/29 11:16:36;;;;;;;0.10;0.10;;;;;;;22.91;71.01;99540.34;5031774;28;20025;-63
2023/08/29 11:19:13;;;;;;;0.10;0.10;;;;;;;22.98;71.49;99544.22;5040187;28;20029;-63
2023/08/29 11:21:48;;;;;;;0.10;0.10;;;;;;;23.25;72.18;99538.97;5049937;28;20116;-62
2023/08/29 11:24:13;;;;;;;0.10;0.10;;;;;;;23.24;69.29;99537.25;5034473;28;20529;-63